Time;durP1;ratioP1;P1;durP2;ratioP2;P2;SDS_P1;SDS_P2;PMS_P1;PMS_P2;Temp;Humidity;BMP_temperature;BMP_pressure;BME280_temperature;BME280_humidity;BME280_pressure;Samples;Min_cycle;Max_cycle;Signal;HPM_P1;HPM_P2
2020/12/30 00:00:11;;;;;;;21.80;12.90;;;4.90;99.90;;;;;;4942371;28;20031;-85
2020/12/30 00:02:38;;;;;;;29.05;14.88;;;4.90;99.90;;;;;;4942388;28;20030;-86
2020/12/30 00:05:10;;;;;;;28.13;13.30;;;4.70;99.90;;;;;;4942165;28;20041;-84
2020/12/30 00:07:40;;;;;;;23.70;12.55;;;4.70;99.90;;;;;;4958490;28;20065;-86
2020/12/30 00:10:10;;;;;;;20.13;9.55;;;4.70;99.90;;;;;;4976105;28;20042;-84
2020/12/30 00:12:36;;;;;;;18.38;10.07;;;4.80;99.90;;;;;;4975388;28;20078;-87
2020/12/30 00:15:03;;;;;;;17.30;11.00;;;4.80;99.90;;;;;;4973530;28;20057;-85
2020/12/30 00:17:29;;;;;;;15.52;8.45;;;4.70;99.90;;;;;;4941968;28;20062;-85
2020/12/30 00:19:54;;;;;;;16.63;9.50;;;4.90;99.90;;;;;;4941604;28;20065;-86
2020/12/30 00:22:20;;;;;;;19.83;9.68;;;4.80;99.90;;;;;;4957885;28;20540;-85
2020/12/30 00:24:46;;;;;;;18.75;9.32;;;4.80;99.90;;;;;;4957837;28;20037;-86
2020/12/30 00:27:12;;;;;;;19.70;9.43;;;4.90;99.90;;;;;;4957291;28;20397;-86
2020/12/30 00:29:39;;;;;;;18.70;8.50;;;5.00;99.90;;;;;;4941741;28;20034;-85
2020/12/30 00:32:07;;;;;;;15.98;8.73;;;5.10;99.90;;;;;;4941233;28;20081;-85
2020/12/30 00:34:33;;;;;;;21.75;10.85;;;5.20;99.90;;;;;;4957401;28;20034;-85
2020/12/30 00:36:59;;;;;;;26.27;13.43;;;5.10;99.90;;;;;;4957476;28;20027;-85
2020/12/30 00:39:25;;;;;;;21.13;11.75;;;5.00;99.90;;;;;;4975176;28;20035;-84
2020/12/30 00:41:56;;;;;;;19.35;11.85;;;5.00;99.90;;;;;;4957529;28;20117;-84
2020/12/30 00:44:22;;;;;;;23.52;13.70;;;5.00;99.90;;;;;;4957607;28;20034;-84
2020/12/30 00:46:52;;;;;;;19.08;11.48;;;5.00;99.90;;;;;;4976983;28;20397;-90
2020/12/30 00:49:17;;;;;;;17.20;8.85;;;4.90;99.90;;;;;;4954387;28;20050;-83
2020/12/30 00:51:51;;;;;;;16.20;10.35;;;5.00;99.90;;;;;;4975523;28;20030;-85
2020/12/30 00:54:17;;;;;;;18.50;10.63;;;5.10;99.90;;;;;;4974925;28;20470;-85
2020/12/30 00:56:43;;;;;;;20.55;11.10;;;5.10;99.90;;;;;;4974373;28;20019;-85
2020/12/30 00:59:08;;;;;;;25.33;11.60;;;5.10;99.90;;;;;;4940893;28;20448;-85
2020/12/30 01:01:34;;;;;;;18.50;9.57;;;4.90;99.90;;;;;;4941005;28;20089;-85
2020/12/30 01:04:00;;;;;;;17.00;8.32;;;5.00;99.90;;;;;;4941122;28;20030;-84
2020/12/30 01:06:27;;;;;;;17.40;7.95;;;5.00;99.90;;;;;;4942965;28;20089;-85
2020/12/30 01:08:53;;;;;;;19.55;7.55;;;4.90;99.90;;;;;;4974909;28;20109;-84
2020/12/30 01:11:30;;;;;;;11.85;4.53;;;4.80;99.90;;;;;;4941595;28;20532;-85
2020/12/30 01:13:56;;;;;;;9.95;5.25;;;4.70;99.90;;;;;;4940906;28;20124;-84
2020/12/30 01:16:23;;;;;;;11.52;4.80;;;4.70;99.90;;;;;;4974192;28;20031;-85
2020/12/30 01:18:48;;;;;;;15.95;3.42;;;4.70;99.90;;;;;;4956544;28;20033;-89
2020/12/30 01:21:14;;;;;;;9.43;2.50;;;4.90;99.90;;;;;;4940799;28;20372;-84
2020/12/30 01:23:40;;;;;;;6.03;2.17;;;4.80;99.90;;;;;;4940818;28;20049;-85
2020/12/30 01:26:06;;;;;;;3.08;1.33;;;4.60;99.90;;;;;;4956571;28;20023;-83
2020/12/30 01:28:32;;;;;;;6.03;1.30;;;4.70;99.90;;;;;;4940783;28;20067;-84
2020/12/30 01:30:57;;;;;;;5.65;1.20;;;4.70;99.90;;;;;;4956478;28;20378;-85
2020/12/30 01:33:23;;;;;;;3.97;1.42;;;4.80;99.90;;;;;;4973807;28;20054;-85
2020/12/30 01:35:48;;;;;;;3.08;1.00;;;4.80;99.90;;;;;;4956979;28;20057;-84
2020/12/30 01:38:14;;;;;;;3.28;0.82;;;4.90;99.90;;;;;;4976518;28;20082;-85
2020/12/30 01:40:40;;;;;;;4.57;0.90;;;5.00;99.90;;;;;;4960921;28;20042;-85
2020/12/30 01:43:06;;;;;;;6.47;1.60;;;5.00;99.90;;;;;;4944555;28;20035;-85
2020/12/30 01:45:32;;;;;;;4.10;1.40;;;5.00;99.90;;;;;;4960711;28;20055;-86
2020/12/30 01:47:59;;;;;;;4.25;2.03;;;5.00;99.90;;;;;;4960129;28;20511;-85
2020/12/30 01:50:25;;;;;;;4.13;1.67;;;5.10;99.90;;;;;;4945035;28;20031;-85
2020/12/30 01:52:51;;;;;;;3.25;1.52;;;5.30;99.90;;;;;;4944703;28;20430;-85
2020/12/30 01:55:23;;;;;;;5.38;1.83;;;5.30;99.90;;;;;;4960764;28;20488;-85
2020/12/30 01:57:49;;;;;;;3.83;1.23;;;5.40;99.90;;;;;;4960202;28;20117;-85
2020/12/30 02:00:14;;;;;;;4.70;1.63;;;5.50;99.90;;;;;;4944207;28;20541;-85
2020/12/30 02:02:47;;;;;;;3.15;1.33;;;5.40;99.90;;;;;;4944577;28;20142;-85
2020/12/30 02:05:19;;;;;;;4.47;1.52;;;5.40;99.90;;;;;;4960340;28;20037;-85
2020/12/30 02:07:45;;;;;;;4.60;1.40;;;5.50;99.90;;;;;;4963709;28;20030;-85
2020/12/30 02:10:12;;;;;;;4.28;1.50;;;5.50;99.90;;;;;;4960930;28;20038;-84
2020/12/30 02:12:39;;;;;;;4.55;1.83;;;5.60;99.90;;;;;;4944606;28;20173;-86
2020/12/30 02:15:05;;;;;;;6.05;2.15;;;5.60;99.90;;;;;;4960077;28;20536;-85
2020/12/30 02:17:30;;;;;;;6.15;2.60;;;5.60;99.90;;;;;;4960296;28;20066;-86
2020/12/30 02:19:56;;;;;;;2.85;2.00;;;5.40;99.90;;;;;;4944004;28;20041;-85
2020/12/30 02:22:24;;;;;;;6.20;1.98;;;5.30;99.90;;;;;;4944455;28;20078;-85
2020/12/30 02:24:50;;;;;;;9.00;2.28;;;5.50;99.90;;;;;;4959968;28;20022;-85
2020/12/30 02:27:16;;;;;;;5.38;2.55;;;5.60;99.90;;;;;;4943483;28;20062;-84
2020/12/30 02:29:41;;;;;;;3.38;1.70;;;5.60;99.90;;;;;;4960036;28;20042;-85
2020/12/30 02:32:07;;;;;;;6.25;1.90;;;5.70;99.90;;;;;;4976987;28;20037;-84
2020/12/30 02:34:32;;;;;;;6.15;2.08;;;5.70;99.90;;;;;;4944100;28;20067;-85
2020/12/30 02:36:58;;;;;;;4.60;1.75;;;5.70;99.90;;;;;;4943634;28;20457;-85
2020/12/30 02:39:24;;;;;;;4.47;1.60;;;5.70;99.90;;;;;;4960125;28;20062;-85
2020/12/30 02:41:50;;;;;;;6.60;2.13;;;5.70;99.90;;;;;;4977459;28;20432;-85
2020/12/30 02:44:16;;;;;;;8.40;1.98;;;5.70;99.90;;;;;;4943769;28;20035;-85
2020/12/30 02:46:42;;;;;;;5.28;1.90;;;5.70;99.90;;;;;;4960201;28;20465;-85
2020/12/30 02:49:07;;;;;;;5.93;2.35;;;5.60;99.90;;;;;;4959322;28;20026;-85
2020/12/30 02:51:33;;;;;;;6.72;2.38;;;5.60;99.90;;;;;;4959688;28;20477;-85
2020/12/30 02:53:58;;;;;;;6.88;2.67;;;5.60;99.90;;;;;;4977493;28;20031;-86
2020/12/30 02:56:24;;;;;;;5.28;2.13;;;5.60;99.90;;;;;;4943653;28;20524;-85
2020/12/30 02:58:51;;;;;;;6.35;2.65;;;5.60;99.90;;;;;;4977268;28;20115;-84
2020/12/30 03:01:17;;;;;;;4.55;2.08;;;5.60;99.90;;;;;;4961951;28;20449;-84
2020/12/30 03:03:44;;;;;;;3.97;2.10;;;5.70;99.90;;;;;;4946766;28;20066;-84
2020/12/30 03:06:10;;;;;;;6.50;2.10;;;5.60;99.90;;;;;;4943933;28;20031;-85
2020/12/30 03:08:36;;;;;;;8.20;2.30;;;5.60;99.90;;;;;;4959319;28;20035;-85
2020/12/30 03:11:03;;;;;;;5.93;1.92;;;5.80;99.90;;;;;;4958792;28;20097;-85
2020/12/30 03:13:29;;;;;;;9.98;2.28;;;5.70;99.90;;;;;;4943127;28;20065;-84
2020/12/30 03:15:55;;;;;;;6.22;2.20;;;5.70;99.90;;;;;;4959532;28;20031;-84
2020/12/30 03:18:21;;;;;;;6.97;2.60;;;5.50;99.90;;;;;;4942843;28;20478;-84
2020/12/30 03:20:46;;;;;;;8.32;2.90;;;5.40;99.90;;;;;;4958955;28;20404;-84
2020/12/30 03:23:12;;;;;;;5.50;1.70;;;5.30;99.90;;;;;;4962799;28;20031;-87
2020/12/30 03:25:38;;;;;;;7.63;2.20;;;5.20;99.90;;;;;;4956368;28;20038;-85
2020/12/30 03:28:04;;;;;;;4.78;1.80;;;5.10;99.90;;;;;;4943743;28;20043;-85
2020/12/30 03:30:30;;;;;;;5.25;1.60;;;5.10;99.90;;;;;;4976671;28;20465;-82
2020/12/30 03:32:56;;;;;;;6.22;1.30;;;5.20;99.90;;;;;;4958762;28;20033;-85
2020/12/30 03:35:24;;;;;;;5.35;1.58;;;5.30;99.90;;;;;;4958843;28;20034;-85
2020/12/30 03:37:52;;;;;;;4.13;1.48;;;5.40;99.90;;;;;;4976227;28;20030;-86
2020/12/30 03:40:18;;;;;;;4.72;1.27;;;5.30;99.90;;;;;;4943098;28;20104;-86
2020/12/30 03:42:43;;;;;;;4.15;1.40;;;5.40;99.90;;;;;;4958614;28;20035;-85
2020/12/30 03:45:09;;;;;;;3.08;0.90;;;5.50;99.90;;;;;;4958833;28;20034;-86
2020/12/30 03:47:35;;;;;;;6.35;1.23;;;5.30;99.90;;;;;;4958751;28;20109;-86
2020/12/30 03:50:00;;;;;;;2.17;1.23;;;5.50;99.90;;;;;;4958380;28;20042;-86
2020/12/30 03:52:26;;;;;;;5.75;1.45;;;5.50;99.90;;;;;;4958140;28;20034;-85
2020/12/30 03:54:51;;;;;;;3.67;0.98;;;5.60;99.90;;;;;;4958358;28;20027;-85
2020/12/30 03:57:17;;;;;;;4.57;1.08;;;5.60;99.90;;;;;;4958579;28;20381;-85
2020/12/30 03:59:43;;;;;;;3.88;2.05;;;5.50;99.90;;;;;;4942511;28;20130;-85
2020/12/30 04:02:08;;;;;;;3.50;1.48;;;5.50;99.90;;;;;;4941860;28;20058;-85
2020/12/30 04:04:34;;;;;;;6.03;1.52;;;5.60;99.90;;;;;;4944780;28;20031;-85
2020/12/30 04:06:59;;;;;;;5.22;1.25;;;5.50;99.90;;;;;;4944301;28;20031;-86
2020/12/30 04:09:25;;;;;;;4.30;1.30;;;5.60;99.90;;;;;;4942257;28;20068;-85
2020/12/30 04:11:51;;;;;;;4.07;1.33;;;5.60;99.90;;;;;;4942405;28;20037;-85
2020/12/30 04:14:16;;;;;;;9.93;1.75;;;5.60;99.90;;;;;;4941835;28;20441;-86
2020/12/30 04:16:42;;;;;;;5.90;1.52;;;5.60;99.90;;;;;;4958793;28;20038;-85
2020/12/30 04:19:08;;;;;;;6.40;2.22;;;5.40;99.90;;;;;;4958453;28;20085;-85
2020/12/30 04:21:34;;;;;;;12.60;1.40;;;5.60;99.90;;;;;;4958141;28;20069;-85
2020/12/30 04:23:59;;;;;;;6.60;1.58;;;5.50;99.90;;;;;;4941992;28;20035;-86
2020/12/30 04:26:25;;;;;;;4.57;1.70;;;5.40;99.90;;;;;;4957834;28;20166;-86
2020/12/30 04:28:50;;;;;;;6.25;1.27;;;5.50;99.90;;;;;;4941881;28;20469;-85
2020/12/30 04:31:17;;;;;;;3.28;1.20;;;5.60;99.90;;;;;;4957697;28;20042;-85
2020/12/30 04:33:43;;;;;;;6.38;1.23;;;5.60;99.90;;;;;;4957674;28;20030;-85
2020/12/30 04:36:10;;;;;;;4.75;1.40;;;5.60;99.90;;;;;;4957648;28;20035;-85
2020/12/30 04:38:37;;;;;;;7.38;2.05;;;5.60;99.90;;;;;;4957395;28;20493;-85
2020/12/30 04:41:08;;;;;;;5.65;1.48;;;5.60;99.90;;;;;;4975067;28;20055;-84
2020/12/30 04:43:35;;;;;;;5.85;1.45;;;5.50;99.90;;;;;;4957951;28;20465;-84
2020/12/30 04:46:02;;;;;;;6.22;2.17;;;5.60;99.90;;;;;;4941573;28;20031;-84
2020/12/30 04:48:28;;;;;;;5.40;1.65;;;5.70;99.90;;;;;;4941348;28;20034;-84
2020/12/30 04:50:54;;;;;;;7.00;1.60;;;5.60;99.90;;;;;;4957410;28;20393;-85
2020/12/30 04:53:21;;;;;;;6.05;1.77;;;5.60;99.90;;;;;;4974517;28;20027;-85
2020/12/30 04:55:51;;;;;;;3.85;1.40;;;5.50;99.90;;;;;;4941602;28;20444;-85
2020/12/30 04:58:18;;;;;;;8.88;1.80;;;5.50;99.90;;;;;;4941523;28;20038;-85
2020/12/30 05:00:45;;;;;;;7.63;1.92;;;5.40;99.90;;;;;;4957502;28;20077;-85
2020/12/30 05:03:12;;;;;;;9.50;1.98;;;5.50;99.90;;;;;;4957311;28;20026;-88
2020/12/30 05:05:38;;;;;;;11.73;2.28;;;5.40;99.90;;;;;;4941329;28;20035;-84
2020/12/30 05:08:11;;;;;;;12.90;2.10;;;5.30;99.90;;;;;;4941174;28;20105;-86
2020/12/30 05:10:44;;;;;;;9.80;2.38;;;5.20;99.90;;;;;;4957470;28;20039;-86
2020/12/30 05:13:09;;;;;;;8.98;2.33;;;5.10;99.90;;;;;;4974146;28;20030;-86
2020/12/30 05:15:35;;;;;;;11.20;2.40;;;5.10;99.90;;;;;;4974399;28;20039;-85
2020/12/30 05:18:05;;;;;;;5.60;2.08;;;5.10;99.90;;;;;;4973612;28;20469;-86
2020/12/30 05:20:35;;;;;;;5.07;2.08;;;5.10;99.90;;;;;;4974547;28;20492;-85
2020/12/30 05:23:08;;;;;;;8.85;2.47;;;5.10;99.90;;;;;;4958343;28;20037;-86
2020/12/30 05:25:36;;;;;;;7.18;2.08;;;5.10;99.90;;;;;;4941185;28;20469;-84
2020/12/30 05:28:03;;;;;;;4.68;2.10;;;5.10;99.90;;;;;;4957304;28;20042;-86
2020/12/30 05:30:31;;;;;;;13.80;2.90;;;5.10;99.90;;;;;;4957337;28;20031;-85
2020/12/30 05:32:57;;;;;;;11.77;2.88;;;5.00;99.90;;;;;;4974162;28;20081;-85
2020/12/30 05:35:24;;;;;;;5.18;2.33;;;4.90;99.90;;;;;;4957002;28;20044;-86
2020/12/30 05:37:50;;;;;;;9.85;2.50;;;4.90;99.90;;;;;;4941492;28;20081;-85
2020/12/30 05:40:20;;;;;;;6.40;2.00;;;4.90;99.90;;;;;;4941031;28;20054;-86
2020/12/30 05:42:47;;;;;;;6.63;1.92;;;4.90;99.90;;;;;;4941281;28;20070;-85
2020/12/30 05:45:25;;;;;;;6.85;1.90;;;4.90;99.90;;;;;;4941597;28;20547;-85
2020/12/30 05:47:50;;;;;;;7.30;1.88;;;4.70;99.90;;;;;;4941225;28;20130;-85
2020/12/30 05:50:25;;;;;;;3.88;1.88;;;4.80;99.90;;;;;;4957806;28;20121;-89
2020/12/30 05:52:52;;;;;;;7.15;1.70;;;4.80;99.90;;;;;;4957763;28;20038;-85
2020/12/30 05:55:27;;;;;;;5.70;1.73;;;5.00;99.90;;;;;;4943559;28;20039;-85
2020/12/30 05:57:53;;;;;;;3.15;1.40;;;5.10;99.90;;;;;;4978808;28;20057;-83
2020/12/30 06:00:19;;;;;;;6.60;1.70;;;4.90;99.90;;;;;;4986168;28;20035;-87
2020/12/30 06:02:48;;;;;;;9.85;1.70;;;5.00;99.90;;;;;;4968710;28;20027;-82
2020/12/30 06:05:24;;;;;;;12.20;2.10;;;5.20;99.90;;;;;;4972212;28;20023;-83
2020/12/30 06:07:51;;;;;;;9.63;1.60;;;5.10;99.90;;;;;;4968084;28;20042;-85
2020/12/30 06:10:25;;;;;;;4.28;1.52;;;5.00;99.90;;;;;;4945555;28;20050;-86
2020/12/30 06:13:02;;;;;;;6.40;1.93;;;5.20;99.90;;;;;;4960292;28;20031;-85
2020/12/30 06:15:29;;;;;;;7.30;2.50;;;5.20;99.90;;;;;;4959881;28;20078;-86
2020/12/30 06:17:56;;;;;;;8.10;1.67;;;5.00;99.90;;;;;;4960057;28;20039;-86
2020/12/30 06:20:32;;;;;;;7.35;2.15;;;4.90;99.90;;;;;;4958261;28;20073;-86
2020/12/30 06:23:02;;;;;;;6.45;1.90;;;5.00;99.90;;;;;;4972986;28;20026;-86
2020/12/30 06:25:29;;;;;;;8.55;2.55;;;5.00;99.90;;;;;;4959133;28;20031;-86
2020/12/30 06:27:56;;;;;;;7.57;1.83;;;4.90;99.90;;;;;;4960175;28;20493;-86
2020/12/30 06:30:23;;;;;;;8.90;2.38;;;4.90;99.90;;;;;;4975964;28;20548;-86
2020/12/30 06:32:49;;;;;;;11.32;2.35;;;4.90;99.90;;;;;;4943902;28;20147;-85
2020/12/30 06:35:25;;;;;;;2.75;1.80;;;4.70;99.90;;;;;;4944216;28;20122;-87
2020/12/30 06:37:51;;;;;;;5.50;2.05;;;4.80;99.90;;;;;;4960363;28;20023;-86
2020/12/30 06:40:30;;;;;;;6.22;1.75;;;4.70;99.90;;;;;;4959909;28;20064;-85
2020/12/30 06:43:01;;;;;;;8.55;2.55;;;4.80;99.90;;;;;;4977244;28;20066;-85
2020/12/30 06:45:45;;;;;;;8.68;2.90;;;4.70;99.90;;;;;;4959628;28;20031;-85
2020/12/30 06:48:12;;;;;;;8.00;3.13;;;4.80;99.90;;;;;;4977404;28;20035;-84
2020/12/30 06:50:39;;;;;;;8.27;3.35;;;4.70;99.90;;;;;;4943325;28;20477;-86
2020/12/30 06:53:24;;;;;;;8.73;3.97;;;4.70;99.90;;;;;;4960129;28;20564;-85
2020/12/30 06:55:51;;;;;;;8.52;3.67;;;4.70;99.90;;;;;;4959647;28;20026;-86
2020/12/30 06:58:45;;;;;;;11.43;5.10;;;4.80;99.90;;;;;;4975324;28;20038;-85
2020/12/30 07:01:16;;;;;;;9.20;5.53;;;4.80;99.90;;;;;;4977156;28;20027;-85
2020/12/30 07:03:42;;;;;;;11.82;6.00;;;4.70;99.90;;;;;;4959316;28;20446;-85
2020/12/30 07:06:24;;;;;;;13.20;6.88;;;4.70;99.90;;;;;;4959782;28;20058;-85
2020/12/30 07:08:51;;;;;;;12.40;7.65;;;4.70;99.90;;;;;;4959248;28;20045;-86
2020/12/30 07:11:35;;;;;;;12.80;8.52;;;4.60;99.90;;;;;;4959352;28;20039;-85
2020/12/30 07:14:04;;;;;;;14.85;10.32;;;4.60;99.90;;;;;;4959553;28;20055;-84
2020/12/30 07:16:33;;;;;;;22.60;13.77;;;4.60;99.90;;;;;;4959378;28;20091;-86
2020/12/30 07:18:59;;;;;;;19.67;11.80;;;4.60;99.90;;;;;;4959537;28;20046;-86
2020/12/30 07:21:25;;;;;;;26.45;13.25;;;4.40;99.90;;;;;;4958784;28;20035;-92
2020/12/30 07:23:55;;;;;;;21.55;13.55;;;4.30;99.90;;;;;;4959448;28;20110;-86
2020/12/30 07:26:21;;;;;;;17.58;11.32;;;4.30;99.90;;;;;;4958856;28;20026;-87
2020/12/30 07:28:48;;;;;;;17.02;11.38;;;4.40;99.90;;;;;;4959107;28;20088;-86
2020/12/30 07:31:15;;;;;;;20.27;13.50;;;4.30;99.90;;;;;;4927764;28;20035;-86
2020/12/30 07:33:41;;;;;;;21.17;12.88;;;4.40;99.90;;;;;;4958762;28;20139;-85
2020/12/30 07:36:08;;;;;;;21.75;13.98;;;4.50;99.90;;;;;;4958708;28;20080;-86
2020/12/30 07:38:37;;;;;;;28.83;13.93;;;4.50;99.90;;;;;;4942440;28;20077;-87
2020/12/30 07:41:04;;;;;;;25.05;14.18;;;4.50;99.90;;;;;;4958996;28;20027;-86
2020/12/30 07:43:29;;;;;;;25.13;16.10;;;4.50;99.90;;;;;;4976124;28;20023;-87
2020/12/30 07:46:22;;;;;;;20.00;13.27;;;4.40;99.90;;;;;;4942724;28;20057;-87
2020/12/30 07:48:48;;;;;;;22.25;13.15;;;4.50;99.90;;;;;;4942794;28;20035;-86
2020/12/30 07:51:14;;;;;;;20.33;13.05;;;4.50;99.90;;;;;;4958653;28;20042;-86
2020/12/30 07:53:51;;;;;;;21.63;13.20;;;4.50;99.90;;;;;;4959048;28;20457;-86
2020/12/30 07:56:24;;;;;;;22.52;14.73;;;4.70;99.90;;;;;;4959152;28;20050;-85
2020/12/30 07:58:50;;;;;;;27.83;15.13;;;4.80;99.90;;;;;;4958305;28;20038;-86
2020/12/30 08:01:17;;;;;;;28.52;16.60;;;4.90;99.90;;;;;;4942666;28;20031;-86
2020/12/30 08:03:42;;;;;;;26.77;16.15;;;4.80;99.90;;;;;;4926765;28;20045;-86
2020/12/30 08:06:11;;;;;;;23.52;15.65;;;4.70;99.90;;;;;;4959117;28;20039;-85
2020/12/30 08:08:44;;;;;;;23.85;15.30;;;4.70;99.90;;;;;;4976084;28;20141;-86
2020/12/30 08:11:10;;;;;;;27.75;16.67;;;4.80;99.90;;;;;;4942676;28;20129;-87
2020/12/30 08:13:38;;;;;;;23.70;17.08;;;4.60;99.90;;;;;;4941746;28;20531;-87
2020/12/30 08:16:09;;;;;;;28.70;18.48;;;4.60;99.90;;;;;;4975884;28;20050;-87
2020/12/30 08:18:34;;;;;;;22.05;14.93;;;4.60;99.90;;;;;;4958266;28;20118;-87
2020/12/30 08:21:10;;;;;;;27.55;16.60;;;4.90;99.90;;;;;;4934439;28;20086;-86
2020/12/30 08:23:36;;;;;;;20.63;12.65;;;4.80;99.90;;;;;;4960503;28;20049;-86
2020/12/30 08:26:04;;;;;;;19.65;12.40;;;4.90;99.90;;;;;;4958148;28;20483;-85
2020/12/30 08:28:34;;;;;;;16.77;10.65;;;5.10;99.90;;;;;;4959469;28;20034;-86
2020/12/30 08:31:02;;;;;;;17.45;9.32;;;5.20;99.90;;;;;;4958392;28;20038;-86
2020/12/30 08:33:29;;;;;;;12.27;8.32;;;5.30;99.90;;;;;;4964058;28;20023;-86
2020/12/30 08:36:05;;;;;;;15.95;9.05;;;5.40;99.90;;;;;;4966180;28;20026;-84
2020/12/30 08:38:32;;;;;;;14.52;8.52;;;5.40;99.90;;;;;;4961859;28;20065;-85
2020/12/30 08:40:58;;;;;;;17.58;9.60;;;5.30;99.90;;;;;;4959301;28;20458;-86
2020/12/30 08:43:44;;;;;;;15.82;9.48;;;5.20;99.90;;;;;;4943007;28;20034;-88
2020/12/30 08:46:22;;;;;;;15.80;9.75;;;5.30;99.90;;;;;;4958085;28;20026;-87
2020/12/30 08:48:50;;;;;;;13.10;7.60;;;5.40;99.90;;;;;;4958010;28;20465;-85
2020/12/30 08:51:33;;;;;;;16.92;8.90;;;5.40;99.90;;;;;;4975909;28;20054;-85
2020/12/30 08:53:59;;;;;;;14.80;7.38;;;5.40;99.90;;;;;;4942833;28;20125;-85
2020/12/30 08:56:26;;;;;;;15.52;7.53;;;5.40;99.90;;;;;;4957845;28;20027;-85
2020/12/30 08:58:56;;;;;;;20.30;10.30;;;5.40;99.90;;;;;;4975160;28;20030;-86
2020/12/30 09:01:24;;;;;;;15.07;7.93;;;5.30;99.90;;;;;;4958039;28;20026;-87
2020/12/30 09:03:50;;;;;;;19.67;8.95;;;5.20;99.90;;;;;;4942177;28;20031;-87
2020/12/30 09:06:28;;;;;;;15.80;7.88;;;5.30;99.90;;;;;;4942217;28;20090;-87
2020/12/30 09:09:11;;;;;;;17.45;8.60;;;5.30;99.90;;;;;;4957695;28;20085;-86
2020/12/30 09:11:43;;;;;;;19.42;10.05;;;5.40;99.90;;;;;;4943643;28;20039;-89
2020/12/30 09:14:13;;;;;;;13.93;7.05;;;5.50;99.90;;;;;;4957665;28;20137;-86
2020/12/30 09:17:01;;;;;;;12.50;5.65;;;5.50;99.90;;;;;;4958119;28;20035;-86
2020/12/30 09:19:27;;;;;;;11.23;6.05;;;5.50;99.90;;;;;;4975435;28;20039;-86
2020/12/30 09:22:09;;;;;;;28.83;10.70;;;5.50;99.90;;;;;;4941533;28;20027;-87
2020/12/30 09:24:39;;;;;;;17.85;6.60;;;5.50;99.90;;;;;;4957728;28;20030;-87
2020/12/30 09:27:21;;;;;;;16.90;5.30;;;5.50;99.90;;;;;;4957817;28;20055;-87
2020/12/30 09:30:05;;;;;;;9.25;4.18;;;5.60;99.90;;;;;;4957353;28;20035;-88
2020/12/30 09:32:33;;;;;;;9.27;3.00;;;5.70;99.90;;;;;;4957511;28;20027;-86
2020/12/30 09:35:07;;;;;;;9.05;3.22;;;5.70;99.90;;;;;;4957269;28;20066;-86
2020/12/30 09:37:33;;;;;;;6.55;3.10;;;5.60;99.90;;;;;;4975196;28;20472;-86
2020/12/30 09:40:06;;;;;;;5.88;2.45;;;5.50;99.90;;;;;;4942111;28;20035;-86
2020/12/30 09:42:34;;;;;;;11.95;2.80;;;5.70;99.90;;;;;;4959219;28;20022;-86
2020/12/30 09:45:00;;;;;;;8.10;2.22;;;5.70;99.90;;;;;;4931335;28;20122;-87
2020/12/30 09:47:25;;;;;;;10.77;2.38;;;5.60;99.90;;;;;;4975055;28;20396;-86
2020/12/30 09:49:51;;;;;;;8.52;2.10;;;5.80;99.90;;;;;;4957390;28;20492;-86
2020/12/30 09:52:17;;;;;;;5.53;1.40;;;5.90;99.90;;;;;;4955835;28;20035;-87
2020/12/30 09:54:43;;;;;;;8.82;1.30;;;5.90;99.90;;;;;;4940233;28;20452;-86
2020/12/30 09:57:08;;;;;;;8.60;1.70;;;6.00;99.90;;;;;;4958083;28;20030;-86
2020/12/30 09:59:34;;;;;;;5.13;1.55;;;6.00;99.90;;;;;;4960459;28;20034;-87
2020/12/30 10:01:59;;;;;;;6.47;2.10;;;6.00;99.90;;;;;;4961025;28;20457;-87
2020/12/30 10:04:25;;;;;;;10.68;1.40;;;6.10;99.90;;;;;;4961277;28;20043;-87
2020/12/30 10:06:51;;;;;;;5.20;1.40;;;6.10;99.90;;;;;;4961181;28;20074;-86
2020/12/30 10:09:16;;;;;;;8.63;1.95;;;6.10;99.90;;;;;;4980665;28;20039;-87
2020/12/30 10:11:42;;;;;;;5.32;1.30;;;6.00;99.90;;;;;;4964818;28;20038;-91
2020/12/30 10:14:08;;;;;;;5.05;1.30;;;5.90;99.90;;;;;;4980270;28;20113;-85
2020/12/30 10:16:33;;;;;;;2.97;1.00;;;5.90;99.90;;;;;;4946996;28;20043;-86
2020/12/30 10:18:59;;;;;;;4.50;1.40;;;5.90;99.90;;;;;;4947233;28;20121;-84
2020/12/30 10:21:31;;;;;;;5.68;1.73;;;5.90;99.90;;;;;;4978119;28;20473;-86
2020/12/30 10:23:58;;;;;;;5.80;1.42;;;6.10;99.90;;;;;;4960809;28;20027;-85
2020/12/30 10:26:24;;;;;;;4.93;1.70;;;6.10;99.90;;;;;;4945010;28;20480;-85
2020/12/30 10:28:49;;;;;;;3.00;1.40;;;6.10;99.90;;;;;;4960393;28;20041;-84
2020/12/30 10:31:15;;;;;;;3.97;1.45;;;6.20;99.90;;;;;;4944774;28;20039;-86
2020/12/30 10:33:41;;;;;;;8.02;2.40;;;6.20;99.90;;;;;;4960972;28;20027;-86
2020/12/30 10:36:07;;;;;;;6.47;1.48;;;6.20;99.90;;;;;;4960728;28;20031;-87
2020/12/30 10:38:33;;;;;;;4.57;1.45;;;6.10;99.90;;;;;;4945078;28;20035;-86
2020/12/30 10:41:02;;;;;;;8.02;1.80;;;6.20;99.90;;;;;;4960701;28;20484;-86
2020/12/30 10:43:28;;;;;;;2.28;1.33;;;6.30;99.90;;;;;;4944174;28;20038;-86
2020/12/30 10:45:55;;;;;;;9.43;2.30;;;6.20;99.90;;;;;;4960705;28;20043;-85
2020/12/30 10:48:20;;;;;;;10.80;1.95;;;6.30;99.90;;;;;;4960223;28;20559;-84
2020/12/30 10:50:46;;;;;;;4.53;1.35;;;6.20;99.90;;;;;;4977576;28;20042;-87
2020/12/30 10:53:12;;;;;;;3.05;1.20;;;6.20;99.90;;;;;;4927741;28;20042;-84
2020/12/30 10:55:37;;;;;;;8.32;2.85;;;6.30;99.90;;;;;;4928165;28;20460;-85
2020/12/30 10:58:03;;;;;;;9.63;2.45;;;6.30;99.90;;;;;;4960101;28;20048;-85
2020/12/30 11:00:29;;;;;;;6.70;1.83;;;6.30;99.90;;;;;;4943892;28;20432;-84
2020/12/30 11:02:54;;;;;;;8.15;1.70;;;6.20;99.90;;;;;;4944489;28;20023;-85
2020/12/30 11:05:20;;;;;;;13.73;1.77;;;6.20;99.90;;;;;;4960340;28;20034;-85
2020/12/30 11:07:45;;;;;;;6.35;1.73;;;6.40;99.90;;;;;;4960469;28;20019;-85
2020/12/30 11:10:12;;;;;;;5.00;1.63;;;6.40;99.90;;;;;;4941982;28;20031;-84
2020/12/30 11:12:37;;;;;;;4.07;1.40;;;6.50;99.90;;;;;;4977553;28;20029;-85
2020/12/30 11:15:07;;;;;;;8.27;1.83;;;6.30;99.90;;;;;;4928973;28;20058;-85
2020/12/30 11:17:33;;;;;;;5.20;1.52;;;6.30;99.90;;;;;;4946177;28;20038;-85
2020/12/30 11:19:59;;;;;;;9.00;2.03;;;6.30;99.90;;;;;;4944017;28;20058;-85
2020/12/30 11:22:25;;;;;;;7.40;1.38;;;6.30;99.90;;;;;;4944297;28;20031;-84
2020/12/30 11:24:51;;;;;;;4.95;1.55;;;6.40;99.90;;;;;;4960174;28;20027;-85
2020/12/30 11:27:17;;;;;;;4.45;1.30;;;6.40;99.90;;;;;;4959635;28;20031;-85
2020/12/30 11:29:43;;;;;;;6.60;1.52;;;6.40;99.90;;;;;;4959538;28;20039;-85
2020/12/30 11:32:08;;;;;;;10.43;1.48;;;6.20;99.90;;;;;;4959284;28;20467;-85
2020/12/30 11:34:34;;;;;;;10.30;2.05;;;6.20;99.90;;;;;;4943059;28;20030;-85
2020/12/30 11:37:00;;;;;;;7.72;1.40;;;6.20;99.90;;;;;;4958918;28;20031;-85
2020/12/30 11:39:26;;;;;;;9.60;1.77;;;6.30;99.90;;;;;;4942735;28;20081;-85
2020/12/30 11:41:51;;;;;;;10.20;2.45;;;6.30;99.90;;;;;;4976534;28;20027;-87
2020/12/30 11:44:18;;;;;;;8.13;2.22;;;6.30;99.90;;;;;;4944893;28;20507;-84
2020/12/30 11:46:43;;;;;;;12.25;1.83;;;6.40;99.90;;;;;;4960166;28;20432;-85
2020/12/30 11:49:09;;;;;;;8.13;1.77;;;6.40;99.90;;;;;;4959483;28;20034;-85
2020/12/30 11:51:39;;;;;;;6.43;1.63;;;6.40;99.90;;;;;;4959263;28;20071;-85
2020/12/30 11:54:05;;;;;;;5.55;1.60;;;6.40;99.90;;;;;;4927082;28;20031;-84
2020/12/30 11:56:31;;;;;;;8.93;1.95;;;6.40;99.90;;;;;;4958675;28;20037;-85
2020/12/30 11:58:56;;;;;;;5.93;1.65;;;6.50;99.90;;;;;;4943738;28;20070;-84
2020/12/30 12:01:22;;;;;;;7.50;1.67;;;6.70;99.90;;;;;;4928774;28;20046;-84
2020/12/30 12:03:47;;;;;;;9.07;1.38;;;6.70;99.90;;;;;;4945924;28;20530;-84
2020/12/30 12:06:13;;;;;;;5.75;1.20;;;6.70;99.90;;;;;;4946119;28;20504;-84
2020/12/30 12:08:40;;;;;;;10.50;2.03;;;6.60;99.90;;;;;;4930994;28;20097;-84
2020/12/30 12:11:05;;;;;;;10.73;1.70;;;6.50;99.90;;;;;;4953074;28;20106;-85
2020/12/30 12:13:31;;;;;;;11.35;2.03;;;6.60;99.90;;;;;;4963184;28;20026;-85
2020/12/30 12:15:57;;;;;;;9.32;2.55;;;6.60;99.90;;;;;;4934427;28;20047;-85
2020/12/30 12:18:22;;;;;;;10.02;1.95;;;6.50;99.90;;;;;;4961547;28;20366;-84
2020/12/30 12:20:48;;;;;;;9.82;1.60;;;6.60;99.90;;;;;;4962128;28;20031;-86
2020/12/30 12:23:14;;;;;;;8.43;1.85;;;6.50;99.90;;;;;;4975350;28;20511;-87
2020/12/30 12:25:48;;;;;;;8.85;1.75;;;6.50;99.90;;;;;;4959337;28;20038;-85
2020/12/30 12:28:54;;;;;;;7.85;1.77;;;6.60;99.90;;;;;;4975545;28;20031;-85
2020/12/30 12:31:22;;;;;;;;;;;6.60;99.90;;;;;;4945276;28;20050;-86
2020/12/30 12:33:47;;;;;;;6.82;1.63;;;6.50;99.90;;;;;;4959156;28;19910;-85
2020/12/30 12:36:14;;;;;;;11.80;1.92;;;6.50;99.90;;;;;;4960304;28;20035;-85
2020/12/30 12:38:40;;;;;;;5.20;1.50;;;6.40;99.90;;;;;;4961016;28;20038;-86
2020/12/30 12:41:06;;;;;;;5.80;1.30;;;6.30;99.90;;;;;;4958752;28;20043;-85
2020/12/30 12:43:32;;;;;;;8.27;1.50;;;6.30;99.90;;;;;;4926893;28;20035;-85
2020/12/30 12:45:58;;;;;;;9.82;1.60;;;6.20;99.90;;;;;;4927122;28;20034;-88
2020/12/30 12:48:23;;;;;;;7.88;1.45;;;6.20;99.90;;;;;;4944285;28;20477;-85
2020/12/30 12:50:52;;;;;;;5.63;1.00;;;6.20;99.90;;;;;;4953044;28;20537;-85
2020/12/30 12:56:25;;;;;;;5.90;1.40;;;6.00;99.90;;;;;;4937713;29;20046;-86
2020/12/30 12:58:51;;;;;;;6.97;1.38;;;5.90;99.90;;;;;;4952181;29;20050;-87